sensor_id;sensor_type;location;lat;lon;timestamp;pressure;altitude;pressure_sealevel;temperature;humidity
38630;BME280;24384;51.988;4.644;2022-10-15T00:01:40;101304.09;;;16.00;100.00
38630;BME280;24384;51.988;4.644;2022-10-15T00:04:06;101305.13;;;15.95;100.00
38630;BME280;24384;51.988;4.644;2022-10-15T00:06:31;101305.03;;;16.04;100.00
38630;BME280;24384;51.988;4.644;2022-10-15T00:08:57;101307.84;;;15.92;100.00
38630;BME280;24384;51.988;4.644;2022-10-15T00:11:24;101308.03;;;16.07;100.00
38630;BME280;24384;51.988;4.644;2022-10-15T00:13:55;101303.50;;;15.94;100.00
38630;BME280;24384;51.988;4.644;2022-10-15T00:16:27;101309.78;;;16.00;100.00
38630;BME280;24384;51.988;4.644;2022-10-15T00:18:57;101314.44;;;15.84;100.00
38630;BME280;24384;51.988;4.644;2022-10-15T00:21:23;101312.84;;;15.74;100.00
38630;BME280;24384;51.988;4.644;2022-10-15T00:23:49;101320.25;;;15.87;100.00
38630;BME280;24384;51.988;4.644;2022-10-15T00:26:18;101323.69;;;15.93;100.00
38630;BME280;24384;51.988;4.644;2022-10-15T00:28:44;101328.44;;;15.89;100.00
38630;BME280;24384;51.988;4.644;2022-10-15T00:31:13;101333.81;;;16.02;100.00
38630;BME280;24384;51.988;4.644;2022-10-15T00:33:39;101334.53;;;15.79;100.00
38630;BME280;24384;51.988;4.644;2022-10-15T00:36:07;101332.66;;;15.83;100.00
38630;BME280;24384;51.988;4.644;2022-10-15T00:38:34;101343.50;;;16.01;100.00
38630;BME280;24384;51.988;4.644;2022-10-15T00:41:00;101337.75;;;16.10;100.00
38630;BME280;24384;51.988;4.644;2022-10-15T00:46:00;101316.41;;;16.04;100.00
38630;BME280;24384;51.988;4.644;2022-10-15T00:48:25;101311.84;;;16.12;100.00
38630;BME280;24384;51.988;4.644;2022-10-15T00:50:52;101300.34;;;16.08;100.00
38630;BME280;24384;51.988;4.644;2022-10-15T00:53:17;101321.63;;;16.02;100.00
38630;BME280;24384;51.988;4.644;2022-10-15T00:55:43;101330.00;;;15.98;100.00
38630;BME280;24384;51.988;4.644;2022-10-15T00:58:14;101317.25;;;16.04;100.00
38630;BME280;24384;51.988;4.644;2022-10-15T01:00:40;101314.97;;;15.98;100.00
38630;BME280;24384;51.988;4.644;2022-10-15T01:03:06;101305.31;;;16.11;100.00
38630;BME280;24384;51.988;4.644;2022-10-15T01:05:33;101303.91;;;16.17;100.00
38630;BME280;24384;51.988;4.644;2022-10-15T01:07:59;101302.84;;;16.22;100.00
38630;BME280;24384;51.988;4.644;2022-10-15T01:10:33;101305.31;;;16.11;100.00
38630;BME280;24384;51.988;4.644;2022-10-15T01:13:10;101291.75;;;16.29;100.00
38630;BME280;24384;51.988;4.644;2022-10-15T01:15:45;101300.19;;;16.04;100.00
38630;BME280;24384;51.988;4.644;2022-10-15T01:18:19;101310.00;;;15.95;100.00
38630;BME280;24384;51.988;4.644;2022-10-15T01:23:27;101309.72;;;16.21;100.00
38630;BME280;24384;51.988;4.644;2022-10-15T01:28:53;101292.31;;;16.22;100.00
38630;BME280;24384;51.988;4.644;2022-10-15T01:31:39;101283.97;;;16.05;100.00
38630;BME280;24384;51.988;4.644;2022-10-15T01:34:31;101278.31;;;16.05;100.00
38630;BME280;24384;51.988;4.644;2022-10-15T01:37:10;101276.66;;;16.16;100.00
38630;BME280;24384;51.988;4.644;2022-10-15T01:39:40;101269.91;;;16.21;100.00
38630;BME280;24384;51.988;4.644;2022-10-15T01:42:18;101267.44;;;16.19;100.00
38630;BME280;24384;51.988;4.644;2022-10-15T01:44:50;101271.72;;;16.25;100.00
38630;BME280;24384;51.988;4.644;2022-10-15T01:47:29;101260.59;;;16.20;100.00
38630;BME280;24384;51.988;4.644;2022-10-15T01:49:58;101263.44;;;16.32;100.00
38630;BME280;24384;51.988;4.644;2022-10-15T01:52:29;101252.53;;;16.22;100.00
38630;BME280;24384;51.988;4.644;2022-10-15T01:54:55;101253.25;;;16.19;100.00
38630;BME280;24384;51.988;4.644;2022-10-15T01:57:23;101253.28;;;16.31;100.00
38630;BME280;24384;51.988;4.644;2022-10-15T01:59:50;101253.38;;;16.35;100.00
38630;BME280;24384;51.988;4.644;2022-10-15T02:02:16;101254.19;;;16.35;100.00
38630;BME280;24384;51.988;4.644;2022-10-15T02:04:42;101237.25;;;16.15;100.00
38630;BME280;24384;51.988;4.644;2022-10-15T02:07:29;101242.53;;;15.92;100.00
38630;BME280;24384;51.988;4.644;2022-10-15T02:15:24;101249.94;;;15.84;100.00
38630;BME280;24384;51.988;4.644;2022-10-15T02:20:50;101251.66;;;15.97;100.00
38630;BME280;24384;51.988;4.644;2022-10-15T02:23:21;101257.38;;;15.77;100.00
38630;BME280;24384;51.988;4.644;2022-10-15T02:25:49;101255.56;;;16.05;100.00
38630;BME280;24384;51.988;4.644;2022-10-15T02:28:16;101240.75;;;15.99;100.00
38630;BME280;24384;51.988;4.644;2022-10-15T02:30:44;101239.75;;;16.28;100.00
38630;BME280;24384;51.988;4.644;2022-10-15T02:33:13;101232.38;;;16.15;100.00
38630;BME280;24384;51.988;4.644;2022-10-15T02:35:41;101215.22;;;16.12;100.00
38630;BME280;24384;51.988;4.644;2022-10-15T02:38:10;101209.63;;;16.03;100.00
38630;BME280;24384;51.988;4.644;2022-10-15T02:40:39;101208.44;;;15.92;100.00
38630;BME280;24384;51.988;4.644;2022-10-15T02:43:08;101212.69;;;15.98;100.00
38630;BME280;24384;51.988;4.644;2022-10-15T02:45:35;101210.03;;;15.81;100.00
38630;BME280;24384;51.988;4.644;2022-10-15T02:48:00;101214.31;;;15.87;100.00
38630;BME280;24384;51.988;4.644;2022-10-15T02:50:26;101210.84;;;15.69;100.00
38630;BME280;24384;51.988;4.644;2022-10-15T02:52:51;101207.13;;;15.57;100.00
38630;BME280;24384;51.988;4.644;2022-10-15T02:55:17;101205.13;;;15.57;100.00
38630;BME280;24384;51.988;4.644;2022-10-15T02:57:43;101215.63;;;15.57;100.00
38630;BME280;24384;51.988;4.644;2022-10-15T03:00:09;101214.59;;;15.40;100.00
38630;BME280;24384;51.988;4.644;2022-10-15T03:02:34;101214.66;;;15.52;100.00
38630;BME280;24384;51.988;4.644;2022-10-15T03:05:01;101202.50;;;15.52;100.00
38630;BME280;24384;51.988;4.644;2022-10-15T03:07:26;101202.97;;;15.33;100.00
38630;BME280;24384;51.988;4.644;2022-10-15T03:09:52;101200.00;;;15.50;100.00
38630;BME280;24384;51.988;4.644;2022-10-15T03:12:17;101215.75;;;15.39;100.00
38630;BME280;24384;51.988;4.644;2022-10-15T03:14:47;101218.28;;;15.41;100.00
38630;BME280;24384;51.988;4.644;2022-10-15T03:17:13;101217.91;;;15.22;100.00
38630;BME280;24384;51.988;4.644;2022-10-15T03:19:38;101228.97;;;15.35;100.00
38630;BME280;24384;51.988;4.644;2022-10-15T03:22:03;101225.03;;;15.28;100.00
38630;BME280;24384;51.988;4.644;2022-10-15T03:24:29;101239.16;;;15.16;100.00
38630;BME280;24384;51.988;4.644;2022-10-15T03:26:54;101262.47;;;15.21;100.00
38630;BME280;24384;51.988;4.644;2022-10-15T03:29:20;101260.00;;;15.20;100.00
38630;BME280;24384;51.988;4.644;2022-10-15T03:31:45;101257.38;;;15.15;100.00
38630;BME280;24384;51.988;4.644;2022-10-15T03:34:10;101263.94;;;15.27;100.00
38630;BME280;24384;51.988;4.644;2022-10-15T03:36:36;101262.78;;;15.28;100.00
38630;BME280;24384;51.988;4.644;2022-10-15T03:39:01;101269.88;;;15.14;100.00
38630;BME280;24384;51.988;4.644;2022-10-15T03:41:27;101279.34;;;15.47;100.00
38630;BME280;24384;51.988;4.644;2022-10-15T03:43:52;101244.94;;;14.78;100.00
38630;BME280;24384;51.988;4.644;2022-10-15T03:46:17;101255.50;;;14.98;100.00
38630;BME280;24384;51.988;4.644;2022-10-15T03:48:43;101251.81;;;14.98;100.00
38630;BME280;24384;51.988;4.644;2022-10-15T03:51:08;101250.81;;;14.73;100.00
38630;BME280;24384;51.988;4.644;2022-10-15T03:53:34;101238.38;;;14.57;100.00
38630;BME280;24384;51.988;4.644;2022-10-15T03:56:03;101257.34;;;14.65;100.00
38630;BME280;24384;51.988;4.644;2022-10-15T03:58:29;101262.84;;;14.70;100.00
38630;BME280;24384;51.988;4.644;2022-10-15T04:00:54;101262.97;;;14.44;100.00
38630;BME280;24384;51.988;4.644;2022-10-15T04:03:20;101273.97;;;14.37;100.00
38630;BME280;24384;51.988;4.644;2022-10-15T04:05:52;101294.09;;;14.53;100.00
38630;BME280;24384;51.988;4.644;2022-10-15T04:08:17;101309.72;;;14.59;100.00
38630;BME280;24384;51.988;4.644;2022-10-15T04:10:43;101328.88;;;14.62;100.00
38630;BME280;24384;51.988;4.644;2022-10-15T04:13:09;101360.66;;;14.84;100.00
38630;BME280;24384;51.988;4.644;2022-10-15T04:15:38;101407.44;;;15.08;100.00
38630;BME280;24384;51.988;4.644;2022-10-15T04:18:03;101433.84;;;15.00;100.00
38630;BME280;24384;51.988;4.644;2022-10-15T04:20:29;101488.31;;;15.22;100.00
38630;BME280;24384;51.988;4.644;2022-10-15T04:22:55;101517.03;;;15.29;100.00
38630;BME280;24384;51.988;4.644;2022-10-15T04:25:20;101555.69;;;15.42;100.00
38630;BME280;24384;51.988;4.644;2022-10-15T04:27:46;101565.03;;;15.60;100.00
38630;BME280;24384;51.988;4.644;2022-10-15T04:30:12;101546.56;;;15.75;100.00
38630;BME280;24384;51.988;4.644;2022-10-15T04:32:37;101542.66;;;15.88;100.00
38630;BME280;24384;51.988;4.644;2022-10-15T04:35:03;101521.28;;;15.52;100.00
38630;BME280;24384;51.988;4.644;2022-10-15T04:37:34;101526.22;;;15.64;100.00
38630;BME280;24384;51.988;4.644;2022-10-15T04:39:59;101530.91;;;15.69;100.00
38630;BME280;24384;51.988;4.644;2022-10-15T04:42:27;101522.34;;;15.77;100.00
38630;BME280;24384;51.988;4.644;2022-10-15T04:44:53;101512.19;;;15.68;100.00
38630;BME280;24384;51.988;4.644;2022-10-15T04:47:18;101511.72;;;15.66;100.00
38630;BME280;24384;51.988;4.644;2022-10-15T04:49:43;101515.88;;;15.68;100.00
38630;BME280;24384;51.988;4.644;2022-10-15T04:52:09;101532.84;;;15.77;100.00
38630;BME280;24384;51.988;4.644;2022-10-15T04:54:35;101536.75;;;15.72;100.00
38630;BME280;24384;51.988;4.644;2022-10-15T04:57:02;101529.91;;;15.65;100.00
38630;BME280;24384;51.988;4.644;2022-10-15T04:59:28;101526.50;;;15.80;100.00
38630;BME280;24384;51.988;4.644;2022-10-15T05:01:53;101510.06;;;15.56;100.00
38630;BME280;24384;51.988;4.644;2022-10-15T05:04:18;101540.91;;;15.75;100.00
38630;BME280;24384;51.988;4.644;2022-10-15T05:06:44;101531.63;;;15.57;100.00
38630;BME280;24384;51.988;4.644;2022-10-15T05:09:09;101559.13;;;16.03;100.00
38630;BME280;24384;51.988;4.644;2022-10-15T05:11:36;101528.44;;;15.88;100.00
38630;BME280;24384;51.988;4.644;2022-10-15T05:14:04;101517.50;;;15.98;100.00
38630;BME280;24384;51.988;4.644;2022-10-15T05:16:31;101500.03;;;15.88;100.00
38630;BME280;24384;51.988;4.644;2022-10-15T05:19:02;101485.22;;;15.82;100.00
38630;BME280;24384;51.988;4.644;2022-10-15T05:21:29;101478.00;;;15.85;100.00
38630;BME280;24384;51.988;4.644;2022-10-15T05:23:56;101475.63;;;15.87;100.00
38630;BME280;24384;51.988;4.644;2022-10-15T05:26:23;101469.16;;;15.86;100.00
38630;BME280;24384;51.988;4.644;2022-10-15T05:28:49;101472.78;;;15.66;100.00
38630;BME280;24384;51.988;4.644;2022-10-15T05:31:22;101482.91;;;15.76;100.00
38630;BME280;24384;51.988;4.644;2022-10-15T05:33:51;101479.47;;;15.91;100.00
38630;BME280;24384;51.988;4.644;2022-10-15T05:36:18;101461.38;;;15.75;100.00
38630;BME280;24384;51.988;4.644;2022-10-15T05:38:46;101461.84;;;15.77;100.00
38630;BME280;24384;51.988;4.644;2022-10-15T05:41:12;101441.41;;;15.63;100.00
38630;BME280;24384;51.988;4.644;2022-10-15T05:43:38;101439.19;;;15.68;100.00
38630;BME280;24384;51.988;4.644;2022-10-15T05:46:03;101428.41;;;15.82;100.00
38630;BME280;24384;51.988;4.644;2022-10-15T05:48:30;101440.72;;;15.66;100.00
38630;BME280;24384;51.988;4.644;2022-10-15T05:51:03;101446.09;;;15.59;100.00
38630;BME280;24384;51.988;4.644;2022-10-15T05:53:29;101439.66;;;15.49;100.00
38630;BME280;24384;51.988;4.644;2022-10-15T05:55:55;101452.81;;;15.54;100.00
38630;BME280;24384;51.988;4.644;2022-10-15T05:58:23;101455.81;;;15.58;100.00
38630;BME280;24384;51.988;4.644;2022-10-15T06:00:56;101475.84;;;15.52;100.00
38630;BME280;24384;51.988;4.644;2022-10-15T06:03:23;101460.13;;;15.64;100.00
38630;BME280;24384;51.988;4.644;2022-10-15T06:05:49;101461.22;;;15.71;100.00
38630;BME280;24384;51.988;4.644;2022-10-15T06:08:15;101459.97;;;15.81;100.00
38630;BME280;24384;51.988;4.644;2022-10-15T06:10:40;101446.47;;;15.98;100.00
38630;BME280;24384;51.988;4.644;2022-10-15T06:13:07;101429.66;;;15.93;100.00
38630;BME280;24384;51.988;4.644;2022-10-15T06:15:32;101416.44;;;15.97;100.00
38630;BME280;24384;51.988;4.644;2022-10-15T06:17:59;101414.19;;;15.82;100.00
38630;BME280;24384;51.988;4.644;2022-10-15T06:20:24;101417.75;;;16.00;100.00
38630;BME280;24384;51.988;4.644;2022-10-15T06:22:50;101403.94;;;15.90;100.00
38630;BME280;24384;51.988;4.644;2022-10-15T06:25:15;101413.69;;;16.01;100.00
38630;BME280;24384;51.988;4.644;2022-10-15T06:27:41;101404.22;;;15.97;100.00
38630;BME280;24384;51.988;4.644;2022-10-15T06:30:07;101400.97;;;15.86;100.00
38630;BME280;24384;51.988;4.644;2022-10-15T06:32:33;101416.06;;;15.99;100.00
38630;BME280;24384;51.988;4.644;2022-10-15T06:34:59;101406.91;;;15.93;100.00
38630;BME280;24384;51.988;4.644;2022-10-15T06:37:24;101430.81;;;15.92;100.00
38630;BME280;24384;51.988;4.644;2022-10-15T06:39:50;101444.53;;;15.90;100.00
38630;BME280;24384;51.988;4.644;2022-10-15T06:42:15;101451.09;;;16.12;100.00
38630;BME280;24384;51.988;4.644;2022-10-15T06:44:40;101454.88;;;15.95;100.00
38630;BME280;24384;51.988;4.644;2022-10-15T06:47:06;101470.53;;;16.01;100.00
38630;BME280;24384;51.988;4.644;2022-10-15T06:49:31;101474.84;;;16.07;100.00
38630;BME280;24384;51.988;4.644;2022-10-15T06:51:57;101468.72;;;15.96;100.00
38630;BME280;24384;51.988;4.644;2022-10-15T06:54:23;101484.34;;;16.11;100.00
38630;BME280;24384;51.988;4.644;2022-10-15T06:56:52;101474.84;;;16.07;100.00
38630;BME280;24384;51.988;4.644;2022-10-15T06:59:17;101488.97;;;16.16;100.00
38630;BME280;24384;51.988;4.644;2022-10-15T07:01:43;101481.13;;;16.13;100.00
38630;BME280;24384;51.988;4.644;2022-10-15T07:04:08;101483.16;;;16.12;100.00
38630;BME280;24384;51.988;4.644;2022-10-15T07:06:34;101486.88;;;16.04;100.00
38630;BME280;24384;51.988;4.644;2022-10-15T07:09:01;101472.56;;;16.00;100.00
38630;BME280;24384;51.988;4.644;2022-10-15T07:11:27;101484.25;;;15.99;100.00
38630;BME280;24384;51.988;4.644;2022-10-15T07:13:53;101495.25;;;15.80;100.00
38630;BME280;24384;51.988;4.644;2022-10-15T07:16:19;101508.34;;;15.93;100.00
38630;BME280;24384;51.988;4.644;2022-10-15T07:18:47;101516.56;;;15.94;100.00
38630;BME280;24384;51.988;4.644;2022-10-15T07:21:14;101509.38;;;16.18;100.00
38630;BME280;24384;51.988;4.644;2022-10-15T07:23:39;101486.63;;;15.97;100.00
38630;BME280;24384;51.988;4.644;2022-10-15T07:26:05;101477.03;;;16.01;100.00
38630;BME280;24384;51.988;4.644;2022-10-15T07:28:30;101484.56;;;15.77;100.00
38630;BME280;24384;51.988;4.644;2022-10-15T07:31:00;101481.25;;;15.95;100.00
38630;BME280;24384;51.988;4.644;2022-10-15T07:33:25;101470.53;;;16.22;100.00
38630;BME280;24384;51.988;4.644;2022-10-15T07:35:51;101451.81;;;16.21;100.00
38630;BME280;24384;51.988;4.644;2022-10-15T07:38:16;101438.81;;;16.20;100.00
38630;BME280;24384;51.988;4.644;2022-10-15T07:40:42;101438.25;;;16.05;100.00
38630;BME280;24384;51.988;4.644;2022-10-15T07:43:07;101442.06;;;15.89;100.00
38630;BME280;24384;51.988;4.644;2022-10-15T07:45:33;101457.06;;;15.89;100.00
38630;BME280;24384;51.988;4.644;2022-10-15T07:47:59;101475.81;;;16.11;100.00
38630;BME280;24384;51.988;4.644;2022-10-15T07:50:25;101463.53;;;16.19;100.00
38630;BME280;24384;51.988;4.644;2022-10-15T07:52:50;101464.78;;;16.30;100.00
38630;BME280;24384;51.988;4.644;2022-10-15T07:55:16;101434.84;;;16.53;100.00
38630;BME280;24384;51.988;4.644;2022-10-15T07:57:41;101412.47;;;16.43;100.00
38630;BME280;24384;51.988;4.644;2022-10-15T08:00:09;101403.25;;;16.46;100.00
38630;BME280;24384;51.988;4.644;2022-10-15T08:02:34;101392.47;;;16.73;100.00
38630;BME280;24384;51.988;4.644;2022-10-15T08:05:00;101364.41;;;16.95;100.00
38630;BME280;24384;51.988;4.644;2022-10-15T08:07:25;101344.38;;;17.04;100.00
38630;BME280;24384;51.988;4.644;2022-10-15T08:09:51;101310.81;;;16.97;100.00
38630;BME280;24384;51.988;4.644;2022-10-15T08:12:16;101300.34;;;17.25;100.00
38630;BME280;24384;51.988;4.644;2022-10-15T08:14:41;101275.84;;;16.97;100.00
38630;BME280;24384;51.988;4.644;2022-10-15T08:17:07;101274.38;;;17.15;100.00
38630;BME280;24384;51.988;4.644;2022-10-15T08:19:32;101248.28;;;17.25;100.00
38630;BME280;24384;51.988;4.644;2022-10-15T08:21:58;101247.22;;;17.17;100.00
38630;BME280;24384;51.988;4.644;2022-10-15T08:24:23;101248.63;;;17.23;100.00
38630;BME280;24384;51.988;4.644;2022-10-15T08:26:49;101234.69;;;17.58;100.00
38630;BME280;24384;51.988;4.644;2022-10-15T08:29:14;101213.56;;;17.59;100.00
38630;BME280;24384;51.988;4.644;2022-10-15T08:31:40;101197.41;;;17.63;100.00
38630;BME280;24384;51.988;4.644;2022-10-15T08:34:06;101180.25;;;17.75;100.00
38630;BME280;24384;51.988;4.644;2022-10-15T08:36:32;101160.63;;;17.58;100.00
38630;BME280;24384;51.988;4.644;2022-10-15T08:38:58;101152.47;;;17.72;100.00
38630;BME280;24384;51.988;4.644;2022-10-15T08:41:57;101138.88;;;17.38;100.00
38630;BME280;24384;51.988;4.644;2022-10-15T08:44:30;101157.13;;;17.37;100.00
38630;BME280;24384;51.988;4.644;2022-10-15T08:47:05;101161.88;;;17.45;100.00
38630;BME280;24384;51.988;4.644;2022-10-15T08:49:48;101158.03;;;17.53;100.00
38630;BME280;24384;51.988;4.644;2022-10-15T08:54:59;101160.03;;;17.80;100.00
38630;BME280;24384;51.988;4.644;2022-10-15T08:57:36;101155.13;;;17.65;100.00
38630;BME280;24384;51.988;4.644;2022-10-15T09:00:23;101160.13;;;17.29;100.00
38630;BME280;24384;51.988;4.644;2022-10-15T09:03:03;101181.47;;;17.35;100.00
38630;BME280;24384;51.988;4.644;2022-10-15T09:06:32;101201.88;;;16.97;100.00
38630;BME280;24384;51.988;4.644;2022-10-15T09:11:04;101221.66;;;17.05;100.00
38630;BME280;24384;51.988;4.644;2022-10-15T09:13:37;101208.00;;;17.11;100.00
38630;BME280;24384;51.988;4.644;2022-10-15T09:16:21;101205.50;;;16.97;100.00
38630;BME280;24384;51.988;4.644;2022-10-15T09:18:50;101247.16;;;16.90;100.00
38630;BME280;24384;51.988;4.644;2022-10-15T09:21:17;101255.69;;;17.02;100.00
38630;BME280;24384;51.988;4.644;2022-10-15T09:23:43;101275.97;;;16.76;100.00
38630;BME280;24384;51.988;4.644;2022-10-15T09:29:14;101301.56;;;17.00;100.00
38630;BME280;24384;51.988;4.644;2022-10-15T09:31:53;101307.50;;;17.07;100.00
38630;BME280;24384;51.988;4.644;2022-10-15T09:34:50;101315.06;;;17.03;100.00
38630;BME280;24384;51.988;4.644;2022-10-15T09:37:29;101338.88;;;16.75;100.00
38630;BME280;24384;51.988;4.644;2022-10-15T09:40:20;101366.66;;;17.38;100.00
38630;BME280;24384;51.988;4.644;2022-10-15T09:42:48;101333.19;;;17.35;100.00
38630;BME280;24384;51.988;4.644;2022-10-15T09:45:15;101328.69;;;17.34;100.00
38630;BME280;24384;51.988;4.644;2022-10-15T09:47:42;101331.69;;;17.13;100.00
38630;BME280;24384;51.988;4.644;2022-10-15T09:50:13;101361.09;;;17.17;100.00
38630;BME280;24384;51.988;4.644;2022-10-15T09:57:58;101333.41;;;17.66;100.00
38630;BME280;24384;51.988;4.644;2022-10-15T10:03:22;101321.41;;;17.49;100.00
38630;BME280;24384;51.988;4.644;2022-10-15T10:05:48;101323.59;;;17.28;100.00
38630;BME280;24384;51.988;4.644;2022-10-15T10:08:20;101340.66;;;17.40;100.00
38630;BME280;24384;51.988;4.644;2022-10-15T10:10:58;101351.19;;;17.51;100.00
38630;BME280;24384;51.988;4.644;2022-10-15T10:13:33;101356.91;;;17.51;100.00
38630;BME280;24384;51.988;4.644;2022-10-15T10:16:08;101358.56;;;17.76;100.00
38630;BME280;24384;51.988;4.644;2022-10-15T10:18:35;101338.91;;;17.59;100.00
38630;BME280;24384;51.988;4.644;2022-10-15T10:21:05;101342.91;;;17.34;100.00
38630;BME280;24384;51.988;4.644;2022-10-15T10:23:36;101339.84;;;17.39;100.00
38630;BME280;24384;51.988;4.644;2022-10-15T10:26:05;101368.31;;;17.39;100.00
38630;BME280;24384;51.988;4.644;2022-10-15T10:31:12;101414.47;;;17.20;100.00
38630;BME280;24384;51.988;4.644;2022-10-15T10:33:42;101413.19;;;17.54;100.00
38630;BME280;24384;51.988;4.644;2022-10-15T10:36:20;101405.06;;;17.80;100.00
38630;BME280;24384;51.988;4.644;2022-10-15T10:41:57;101385.28;;;17.48;100.00
38630;BME280;24384;51.988;4.644;2022-10-15T10:44:39;101395.72;;;17.44;100.00
38630;BME280;24384;51.988;4.644;2022-10-15T10:47:20;101392.66;;;17.61;100.00
38630;BME280;24384;51.988;4.644;2022-10-15T10:52:23;101363.59;;;17.19;100.00
38630;BME280;24384;51.988;4.644;2022-10-15T10:55:07;101410.19;;;17.27;100.00
38630;BME280;24384;51.988;4.644;2022-10-15T10:57:50;101458.34;;;17.32;100.00
38630;BME280;24384;51.988;4.644;2022-10-15T11:00:20;101467.63;;;17.53;100.00
38630;BME280;24384;51.988;4.644;2022-10-15T11:02:48;101479.53;;;17.55;100.00
38630;BME280;24384;51.988;4.644;2022-10-15T11:05:21;101477.63;;;17.59;100.00
38630;BME280;24384;51.988;4.644;2022-10-15T11:08:27;101457.19;;;17.57;100.00
38630;BME280;24384;51.988;4.644;2022-10-15T11:11:25;101451.97;;;17.71;100.00
38630;BME280;24384;51.988;4.644;2022-10-15T11:14:24;101458.63;;;17.75;100.00
38630;BME280;24384;51.988;4.644;2022-10-15T11:20:04;101481.88;;;17.77;100.00
38630;BME280;24384;51.988;4.644;2022-10-15T11:25:33;101476.06;;;17.86;100.00
38630;BME280;24384;51.988;4.644;2022-10-15T11:28:33;101462.25;;;18.12;100.00
38630;BME280;24384;51.988;4.644;2022-10-15T11:39:45;101412.72;;;18.72;100.00
38630;BME280;24384;51.988;4.644;2022-10-15T11:42:23;101386.56;;;18.42;100.00
38630;BME280;24384;51.988;4.644;2022-10-15T11:55:46;101422.44;;;18.55;100.00
38630;BME280;24384;51.988;4.644;2022-10-15T11:58:25;101404.66;;;18.62;100.00
38630;BME280;24384;51.988;4.644;2022-10-15T12:00:57;101420.00;;;18.85;100.00
38630;BME280;24384;51.988;4.644;2022-10-15T12:03:26;101413.31;;;18.50;100.00
38630;BME280;24384;51.988;4.644;2022-10-15T12:06:07;101428.41;;;18.38;100.00
38630;BME280;24384;51.988;4.644;2022-10-15T12:08:35;101437.59;;;18.31;100.00
38630;BME280;24384;51.988;4.644;2022-10-15T12:11:19;101464.63;;;18.22;100.00
38630;BME280;24384;51.988;4.644;2022-10-15T12:22:11;101521.00;;;18.28;100.00
38630;BME280;24384;51.988;4.644;2022-10-15T12:30:10;101530.03;;;18.82;100.00
38630;BME280;24384;51.988;4.644;2022-10-15T12:32:42;101504.06;;;18.87;100.00
38630;BME280;24384;51.988;4.644;2022-10-15T12:37:38;101488.78;;;18.80;100.00
38630;BME280;24384;51.988;4.644;2022-10-15T12:42:49;101474.41;;;18.49;100.00
38630;BME280;24384;51.988;4.644;2022-10-15T12:45:23;101460.69;;;18.82;100.00
38630;BME280;24384;51.988;4.644;2022-10-15T12:47:53;101432.25;;;18.85;100.00
38630;BME280;24384;51.988;4.644;2022-10-15T12:50:25;101405.03;;;19.04;100.00
38630;BME280;24384;51.988;4.644;2022-10-15T12:53:03;101388.44;;;19.25;100.00
38630;BME280;24384;51.988;4.644;2022-10-15T12:55:37;101361.44;;;19.22;100.00
38630;BME280;24384;51.988;4.644;2022-10-15T13:08:43;101265.22;;;18.91;100.00
38630;BME280;24384;51.988;4.644;2022-10-15T13:11:20;101284.03;;;19.43;100.00
38630;BME280;24384;51.988;4.644;2022-10-15T13:13:49;101271.34;;;19.40;100.00
38630;BME280;24384;51.988;4.644;2022-10-15T13:16:15;101256.84;;;19.49;100.00
38630;BME280;24384;51.988;4.644;2022-10-15T13:18:47;101236.66;;;19.61;100.00
38630;BME280;24384;51.988;4.644;2022-10-15T13:21:14;101211.41;;;19.63;100.00
38630;BME280;24384;51.988;4.644;2022-10-15T13:23:47;101160.34;;;19.81;100.00
38630;BME280;24384;51.988;4.644;2022-10-15T13:26:23;101154.66;;;20.26;100.00
38630;BME280;24384;51.988;4.644;2022-10-15T13:28:56;101095.34;;;20.00;100.00
38630;BME280;24384;51.988;4.644;2022-10-15T13:31:30;101076.06;;;19.33;100.00
38630;BME280;24384;51.988;4.644;2022-10-15T13:33:59;101055.72;;;19.34;100.00
38630;BME280;24384;51.988;4.644;2022-10-15T13:36:30;101044.91;;;19.66;100.00
38630;BME280;24384;51.988;4.644;2022-10-15T13:39:05;101020.84;;;19.67;100.00
38630;BME280;24384;51.988;4.644;2022-10-15T13:41:34;100984.00;;;19.39;100.00
38630;BME280;24384;51.988;4.644;2022-10-15T13:44:00;100953.56;;;19.28;100.00
38630;BME280;24384;51.988;4.644;2022-10-15T13:46:30;100943.88;;;19.32;100.00
38630;BME280;24384;51.988;4.644;2022-10-15T13:49:00;100939.25;;;19.47;100.00
38630;BME280;24384;51.988;4.644;2022-10-15T13:51:31;100937.19;;;19.70;100.00
38630;BME280;24384;51.988;4.644;2022-10-15T13:53:58;100932.22;;;19.64;100.00
38630;BME280;24384;51.988;4.644;2022-10-15T13:56:31;100912.66;;;19.43;100.00
38630;BME280;24384;51.988;4.644;2022-10-15T13:58:58;100913.28;;;19.56;100.00
38630;BME280;24384;51.988;4.644;2022-10-15T14:01:25;100903.56;;;19.37;100.00
38630;BME280;24384;51.988;4.644;2022-10-15T14:04:01;100911.00;;;19.19;100.00
38630;BME280;24384;51.988;4.644;2022-10-15T14:06:32;100916.84;;;19.26;100.00
38630;BME280;24384;51.988;4.644;2022-10-15T14:11:38;100910.88;;;19.35;100.00
38630;BME280;24384;51.988;4.644;2022-10-15T14:14:33;100903.41;;;19.27;100.00
38630;BME280;24384;51.988;4.644;2022-10-15T14:17:05;100902.91;;;19.44;100.00
38630;BME280;24384;51.988;4.644;2022-10-15T14:19:34;100899.00;;;19.82;100.00
38630;BME280;24384;51.988;4.644;2022-10-15T14:22:01;100899.28;;;19.73;100.00
38630;BME280;24384;51.988;4.644;2022-10-15T14:24:32;100860.59;;;19.79;100.00
38630;BME280;24384;51.988;4.644;2022-10-15T14:27:02;100868.28;;;19.49;100.00
38630;BME280;24384;51.988;4.644;2022-10-15T14:29:37;100858.50;;;19.76;100.00
38630;BME280;24384;51.988;4.644;2022-10-15T14:34:46;100859.44;;;20.14;100.00